sensor_id;sensor_type;location;lat;lon;timestamp;P1;durP1;ratioP1;P2;durP2;ratioP2
54641;SDS011;40536;53.194;5.728;2023-05-15T00:01:37;26.92;;;22.65;;
54641;SDS011;40536;53.194;5.728;2023-05-15T00:04:03;30.80;;;22.52;;
54641;SDS011;40536;53.194;5.728;2023-05-15T00:06:29;29.17;;;20.55;;
54641;SDS011;40536;53.194;5.728;2023-05-15T00:08:55;32.33;;;24.30;;
54641;SDS011;40536;53.194;5.728;2023-05-15T00:11:21;30.20;;;22.67;;
54641;SDS011;40536;53.194;5.728;2023-05-15T00:13:47;31.88;;;22.98;;
54641;SDS011;40536;53.194;5.728;2023-05-15T00:16:14;28.20;;;20.23;;
54641;SDS011;40536;53.194;5.728;2023-05-15T00:18:39;30.17;;;20.55;;
54641;SDS011;40536;53.194;5.728;2023-05-15T00:21:05;33.20;;;21.33;;
54641;SDS011;40536;53.194;5.728;2023-05-15T00:23:31;28.60;;;21.38;;
54641;SDS011;40536;53.194;5.728;2023-05-15T00:25:56;29.15;;;22.27;;
54641;SDS011;40536;53.194;5.728;2023-05-15T00:28:22;26.92;;;20.92;;
54641;SDS011;40536;53.194;5.728;2023-05-15T00:30:49;28.58;;;20.17;;
54641;SDS011;40536;53.194;5.728;2023-05-15T00:33:15;26.23;;;19.85;;
54641;SDS011;40536;53.194;5.728;2023-05-15T00:35:41;24.85;;;20.25;;
54641;SDS011;40536;53.194;5.728;2023-05-15T00:38:07;31.40;;;22.52;;
54641;SDS011;40536;53.194;5.728;2023-05-15T00:40:32;27.55;;;21.88;;
54641;SDS011;40536;53.194;5.728;2023-05-15T00:43:00;28.92;;;22.65;;
54641;SDS011;40536;53.194;5.728;2023-05-15T00:45:27;28.25;;;21.52;;
54641;SDS011;40536;53.194;5.728;2023-05-15T00:47:54;30.60;;;20.27;;
54641;SDS011;40536;53.194;5.728;2023-05-15T00:50:21;27.08;;;20.40;;
54641;SDS011;40536;53.194;5.728;2023-05-15T00:52:48;28.08;;;21.50;;
54641;SDS011;40536;53.194;5.728;2023-05-15T00:55:14;26.48;;;19.08;;
54641;SDS011;40536;53.194;5.728;2023-05-15T00:57:41;62.20;;;21.95;;
54641;SDS011;40536;53.194;5.728;2023-05-15T01:00:08;23.38;;;18.55;;
54641;SDS011;40536;53.194;5.728;2023-05-15T01:02:37;33.13;;;19.98;;
54641;SDS011;40536;53.194;5.728;2023-05-15T01:05:03;24.02;;;18.20;;
54641;SDS011;40536;53.194;5.728;2023-05-15T01:07:32;56.63;;;20.35;;
54641;SDS011;40536;53.194;5.728;2023-05-15T01:10:04;21.20;;;17.20;;
54641;SDS011;40536;53.194;5.728;2023-05-15T01:12:31;24.98;;;20.35;;
54641;SDS011;40536;53.194;5.728;2023-05-15T01:14:59;24.83;;;22.30;;
54641;SDS011;40536;53.194;5.728;2023-05-15T01:17:26;24.77;;;20.88;;
54641;SDS011;40536;53.194;5.728;2023-05-15T01:19:51;24.15;;;21.63;;
54641;SDS011;40536;53.194;5.728;2023-05-15T01:22:29;24.90;;;22.67;;
54641;SDS011;40536;53.194;5.728;2023-05-15T01:26:01;29.88;;;27.17;;
54641;SDS011;40536;53.194;5.728;2023-05-15T01:28:36;30.55;;;27.70;;
54641;SDS011;40536;53.194;5.728;2023-05-15T01:31:09;31.35;;;28.42;;
54641;SDS011;40536;53.194;5.728;2023-05-15T01:33:40;30.83;;;28.02;;
54641;SDS011;40536;53.194;5.728;2023-05-15T01:39:07;24.95;;;22.25;;
54641;SDS011;40536;53.194;5.728;2023-05-15T01:44:21;33.75;;;30.58;;
54641;SDS011;40536;53.194;5.728;2023-05-15T01:46:54;31.50;;;28.45;;
54641;SDS011;40536;53.194;5.728;2023-05-15T01:49:22;33.08;;;29.88;;
54641;SDS011;40536;53.194;5.728;2023-05-15T01:51:54;32.85;;;29.55;;
54641;SDS011;40536;53.194;5.728;2023-05-15T01:54:25;32.55;;;29.23;;
54641;SDS011;40536;53.194;5.728;2023-05-15T01:56:53;36.53;;;32.95;;
54641;SDS011;40536;53.194;5.728;2023-05-15T01:59:21;39.75;;;35.83;;
54641;SDS011;40536;53.194;5.728;2023-05-15T02:01:47;38.90;;;34.88;;
54641;SDS011;40536;53.194;5.728;2023-05-15T02:04:14;36.85;;;33.20;;
54641;SDS011;40536;53.194;5.728;2023-05-15T02:06:41;33.47;;;25.02;;
54641;SDS011;40536;53.194;5.728;2023-05-15T02:09:08;30.25;;;22.20;;
54641;SDS011;40536;53.194;5.728;2023-05-15T02:11:35;27.98;;;21.88;;
54641;SDS011;40536;53.194;5.728;2023-05-15T02:14:01;29.45;;;24.10;;
54641;SDS011;40536;53.194;5.728;2023-05-15T02:16:29;29.77;;;22.95;;
54641;SDS011;40536;53.194;5.728;2023-05-15T02:18:54;26.80;;;21.23;;
54641;SDS011;40536;53.194;5.728;2023-05-15T02:21:20;32.30;;;22.58;;
54641;SDS011;40536;53.194;5.728;2023-05-15T02:23:46;29.05;;;21.10;;
54641;SDS011;40536;53.194;5.728;2023-05-15T02:29:01;30.55;;;21.48;;
54641;SDS011;40536;53.194;5.728;2023-05-15T02:34:51;30.13;;;23.42;;
54641;SDS011;40536;53.194;5.728;2023-05-15T02:37:26;35.30;;;24.73;;
54641;SDS011;40536;53.194;5.728;2023-05-15T02:39:55;34.15;;;24.50;;
54641;SDS011;40536;53.194;5.728;2023-05-15T02:42:24;32.95;;;23.70;;
54641;SDS011;40536;53.194;5.728;2023-05-15T02:44:52;31.55;;;23.73;;
54641;SDS011;40536;53.194;5.728;2023-05-15T02:47:19;30.33;;;23.45;;
54641;SDS011;40536;53.194;5.728;2023-05-15T02:49:46;33.83;;;24.02;;
54641;SDS011;40536;53.194;5.728;2023-05-15T02:52:12;31.45;;;23.73;;
54641;SDS011;40536;53.194;5.728;2023-05-15T02:54:38;32.20;;;25.13;;
54641;SDS011;40536;53.194;5.728;2023-05-15T02:57:05;29.75;;;21.40;;
54641;SDS011;40536;53.194;5.728;2023-05-15T02:59:32;29.48;;;20.95;;
54641;SDS011;40536;53.194;5.728;2023-05-15T03:01:58;24.27;;;20.13;;
54641;SDS011;40536;53.194;5.728;2023-05-15T03:04:24;23.95;;;18.92;;
54641;SDS011;40536;53.194;5.728;2023-05-15T03:06:50;26.67;;;19.98;;
54641;SDS011;40536;53.194;5.728;2023-05-15T03:09:15;25.52;;;20.30;;
54641;SDS011;40536;53.194;5.728;2023-05-15T03:11:42;25.67;;;18.55;;
54641;SDS011;40536;53.194;5.728;2023-05-15T03:14:07;23.73;;;18.85;;
54641;SDS011;40536;53.194;5.728;2023-05-15T03:16:33;23.55;;;18.48;;
54641;SDS011;40536;53.194;5.728;2023-05-15T03:19:01;27.35;;;18.90;;
54641;SDS011;40536;53.194;5.728;2023-05-15T03:21:26;23.48;;;18.63;;
54641;SDS011;40536;53.194;5.728;2023-05-15T03:23:52;29.17;;;24.20;;
54641;SDS011;40536;53.194;5.728;2023-05-15T03:26:18;25.63;;;19.27;;
54641;SDS011;40536;53.194;5.728;2023-05-15T03:28:44;31.55;;;23.13;;
54641;SDS011;40536;53.194;5.728;2023-05-15T03:31:10;27.75;;;21.98;;
54641;SDS011;40536;53.194;5.728;2023-05-15T03:33:36;31.08;;;24.13;;
54641;SDS011;40536;53.194;5.728;2023-05-15T03:36:02;32.40;;;24.27;;
54641;SDS011;40536;53.194;5.728;2023-05-15T03:38:29;32.33;;;23.95;;
54641;SDS011;40536;53.194;5.728;2023-05-15T03:40:54;30.70;;;23.55;;
54641;SDS011;40536;53.194;5.728;2023-05-15T03:43:20;30.00;;;23.48;;
54641;SDS011;40536;53.194;5.728;2023-05-15T03:45:46;32.22;;;23.33;;
54641;SDS011;40536;53.194;5.728;2023-05-15T03:48:11;31.33;;;23.77;;
54641;SDS011;40536;53.194;5.728;2023-05-15T03:50:37;28.02;;;22.38;;
54641;SDS011;40536;53.194;5.728;2023-05-15T03:53:04;29.63;;;21.85;;
54641;SDS011;40536;53.194;5.728;2023-05-15T03:55:29;31.70;;;22.83;;
54641;SDS011;40536;53.194;5.728;2023-05-15T03:57:56;29.63;;;22.75;;
54641;SDS011;40536;53.194;5.728;2023-05-15T04:00:22;28.60;;;22.40;;
54641;SDS011;40536;53.194;5.728;2023-05-15T04:02:47;30.65;;;22.73;;
54641;SDS011;40536;53.194;5.728;2023-05-15T04:05:13;31.60;;;22.52;;
54641;SDS011;40536;53.194;5.728;2023-05-15T04:07:39;32.88;;;23.63;;
54641;SDS011;40536;53.194;5.728;2023-05-15T04:10:05;29.60;;;21.80;;
54641;SDS011;40536;53.194;5.728;2023-05-15T04:12:31;29.60;;;21.58;;
54641;SDS011;40536;53.194;5.728;2023-05-15T04:15:04;29.05;;;20.98;;
54641;SDS011;40536;53.194;5.728;2023-05-15T04:17:44;29.90;;;22.75;;
54641;SDS011;40536;53.194;5.728;2023-05-15T04:20:11;28.55;;;20.58;;
54641;SDS011;40536;53.194;5.728;2023-05-15T04:22:39;31.05;;;22.33;;
54641;SDS011;40536;53.194;5.728;2023-05-15T04:25:06;33.15;;;23.00;;
54641;SDS011;40536;53.194;5.728;2023-05-15T04:27:33;32.20;;;23.65;;
54641;SDS011;40536;53.194;5.728;2023-05-15T04:29:59;33.05;;;21.05;;
54641;SDS011;40536;53.194;5.728;2023-05-15T04:32:25;36.35;;;22.83;;
54641;SDS011;40536;53.194;5.728;2023-05-15T04:34:51;34.63;;;21.70;;
54641;SDS011;40536;53.194;5.728;2023-05-15T04:37:17;30.42;;;21.55;;
54641;SDS011;40536;53.194;5.728;2023-05-15T04:39:43;33.85;;;21.67;;
54641;SDS011;40536;53.194;5.728;2023-05-15T04:42:09;33.55;;;22.45;;
54641;SDS011;40536;53.194;5.728;2023-05-15T04:44:35;28.90;;;19.83;;
54641;SDS011;40536;53.194;5.728;2023-05-15T04:47:01;28.13;;;19.80;;
54641;SDS011;40536;53.194;5.728;2023-05-15T04:49:26;28.00;;;19.08;;
54641;SDS011;40536;53.194;5.728;2023-05-15T04:51:52;27.30;;;19.10;;
54641;SDS011;40536;53.194;5.728;2023-05-15T04:54:18;27.40;;;19.73;;
54641;SDS011;40536;53.194;5.728;2023-05-15T04:56:44;28.38;;;19.50;;
54641;SDS011;40536;53.194;5.728;2023-05-15T04:59:10;25.25;;;18.85;;
54641;SDS011;40536;53.194;5.728;2023-05-15T05:01:37;23.33;;;17.85;;
54641;SDS011;40536;53.194;5.728;2023-05-15T05:04:03;25.70;;;19.80;;
54641;SDS011;40536;53.194;5.728;2023-05-15T05:06:29;26.88;;;19.48;;
54641;SDS011;40536;53.194;5.728;2023-05-15T05:08:55;28.38;;;20.48;;
54641;SDS011;40536;53.194;5.728;2023-05-15T05:11:20;31.48;;;22.70;;
54641;SDS011;40536;53.194;5.728;2023-05-15T05:13:46;28.33;;;24.95;;
54641;SDS011;40536;53.194;5.728;2023-05-15T05:16:12;31.55;;;22.52;;
54641;SDS011;40536;53.194;5.728;2023-05-15T05:18:38;30.85;;;24.35;;
54641;SDS011;40536;53.194;5.728;2023-05-15T05:21:04;32.33;;;26.17;;
54641;SDS011;40536;53.194;5.728;2023-05-15T05:23:30;32.13;;;26.00;;
54641;SDS011;40536;53.194;5.728;2023-05-15T05:25:55;32.42;;;24.40;;
54641;SDS011;40536;53.194;5.728;2023-05-15T05:28:21;30.25;;;23.70;;
54641;SDS011;40536;53.194;5.728;2023-05-15T05:30:47;28.55;;;20.67;;
54641;SDS011;40536;53.194;5.728;2023-05-15T05:33:13;24.17;;;18.20;;
54641;SDS011;40536;53.194;5.728;2023-05-15T05:35:39;21.52;;;16.73;;
54641;SDS011;40536;53.194;5.728;2023-05-15T05:38:05;22.85;;;18.98;;
54641;SDS011;40536;53.194;5.728;2023-05-15T05:40:31;21.52;;;18.55;;
54641;SDS011;40536;53.194;5.728;2023-05-15T05:43:00;20.90;;;18.75;;
54641;SDS011;40536;53.194;5.728;2023-05-15T05:45:26;22.13;;;19.33;;
54641;SDS011;40536;53.194;5.728;2023-05-15T05:47:55;21.73;;;18.27;;
54641;SDS011;40536;53.194;5.728;2023-05-15T05:50:21;18.30;;;16.40;;
54641;SDS011;40536;53.194;5.728;2023-05-15T05:52:47;19.27;;;17.10;;
54641;SDS011;40536;53.194;5.728;2023-05-15T05:55:13;22.20;;;19.90;;
54641;SDS011;40536;53.194;5.728;2023-05-15T05:57:39;24.83;;;22.63;;
54641;SDS011;40536;53.194;5.728;2023-05-15T06:00:05;25.60;;;23.15;;
54641;SDS011;40536;53.194;5.728;2023-05-15T06:02:33;24.40;;;22.00;;
54641;SDS011;40536;53.194;5.728;2023-05-15T06:04:59;25.83;;;23.23;;
54641;SDS011;40536;53.194;5.728;2023-05-15T06:07:25;28.80;;;25.90;;
54641;SDS011;40536;53.194;5.728;2023-05-15T06:09:52;30.65;;;27.23;;
54641;SDS011;40536;53.194;5.728;2023-05-15T06:12:17;25.17;;;22.70;;
54641;SDS011;40536;53.194;5.728;2023-05-15T06:14:43;26.60;;;22.45;;
54641;SDS011;40536;53.194;5.728;2023-05-15T06:17:09;21.13;;;18.88;;
54641;SDS011;40536;53.194;5.728;2023-05-15T06:19:35;20.42;;;18.33;;
54641;SDS011;40536;53.194;5.728;2023-05-15T06:22:00;20.52;;;18.05;;
54641;SDS011;40536;53.194;5.728;2023-05-15T06:24:26;22.30;;;19.73;;
54641;SDS011;40536;53.194;5.728;2023-05-15T06:26:52;26.58;;;23.95;;
54641;SDS011;40536;53.194;5.728;2023-05-15T06:29:18;26.17;;;23.77;;
54641;SDS011;40536;53.194;5.728;2023-05-15T06:31:49;26.38;;;23.67;;
54641;SDS011;40536;53.194;5.728;2023-05-15T06:34:14;29.10;;;26.33;;
54641;SDS011;40536;53.194;5.728;2023-05-15T06:36:40;29.88;;;27.05;;
54641;SDS011;40536;53.194;5.728;2023-05-15T06:39:06;29.95;;;27.17;;
54641;SDS011;40536;53.194;5.728;2023-05-15T06:41:34;27.52;;;25.00;;
54641;SDS011;40536;53.194;5.728;2023-05-15T06:44:00;26.52;;;24.15;;
54641;SDS011;40536;53.194;5.728;2023-05-15T06:46:26;30.00;;;27.15;;
54641;SDS011;40536;53.194;5.728;2023-05-15T06:48:52;26.55;;;24.27;;
54641;SDS011;40536;53.194;5.728;2023-05-15T06:51:17;27.05;;;24.55;;
54641;SDS011;40536;53.194;5.728;2023-05-15T06:53:43;28.80;;;26.00;;
54641;SDS011;40536;53.194;5.728;2023-05-15T06:56:09;31.05;;;28.38;;
54641;SDS011;40536;53.194;5.728;2023-05-15T06:58:34;29.95;;;27.45;;
54641;SDS011;40536;53.194;5.728;2023-05-15T07:01:00;26.90;;;24.60;;
54641;SDS011;40536;53.194;5.728;2023-05-15T07:03:28;24.55;;;22.45;;
54641;SDS011;40536;53.194;5.728;2023-05-15T07:05:54;18.55;;;16.27;;
54641;SDS011;40536;53.194;5.728;2023-05-15T07:08:19;16.00;;;14.40;;
54641;SDS011;40536;53.194;5.728;2023-05-15T07:10:45;17.98;;;16.27;;
54641;SDS011;40536;53.194;5.728;2023-05-15T07:13:11;19.35;;;17.40;;
54641;SDS011;40536;53.194;5.728;2023-05-15T07:15:36;22.75;;;20.90;;
54641;SDS011;40536;53.194;5.728;2023-05-15T07:18:02;25.15;;;23.25;;
54641;SDS011;40536;53.194;5.728;2023-05-15T07:20:28;25.48;;;23.38;;
54641;SDS011;40536;53.194;5.728;2023-05-15T07:22:53;21.48;;;19.77;;
54641;SDS011;40536;53.194;5.728;2023-05-15T07:25:19;20.30;;;18.60;;
54641;SDS011;40536;53.194;5.728;2023-05-15T07:27:45;21.08;;;19.45;;
54641;SDS011;40536;53.194;5.728;2023-05-15T07:30:13;25.70;;;23.45;;
54641;SDS011;40536;53.194;5.728;2023-05-15T07:32:38;28.05;;;25.75;;
54641;SDS011;40536;53.194;5.728;2023-05-15T07:35:04;26.52;;;24.33;;
54641;SDS011;40536;53.194;5.728;2023-05-15T07:37:30;21.98;;;20.05;;
54641;SDS011;40536;53.194;5.728;2023-05-15T07:39:56;27.58;;;25.60;;
54641;SDS011;40536;53.194;5.728;2023-05-15T07:42:21;23.58;;;21.65;;
54641;SDS011;40536;53.194;5.728;2023-05-15T07:44:47;18.85;;;17.05;;
54641;SDS011;40536;53.194;5.728;2023-05-15T07:47:13;18.50;;;16.60;;
54641;SDS011;40536;53.194;5.728;2023-05-15T07:49:38;17.83;;;15.95;;
54641;SDS011;40536;53.194;5.728;2023-05-15T07:52:04;17.00;;;12.45;;
54641;SDS011;40536;53.194;5.728;2023-05-15T07:54:30;13.65;;;11.68;;
54641;SDS011;40536;53.194;5.728;2023-05-15T07:56:56;14.70;;;12.25;;
54641;SDS011;40536;53.194;5.728;2023-05-15T07:59:22;13.90;;;12.43;;
54641;SDS011;40536;53.194;5.728;2023-05-15T08:01:48;15.80;;;14.02;;
54641;SDS011;40536;53.194;5.728;2023-05-15T08:04:14;16.20;;;14.68;;
54641;SDS011;40536;53.194;5.728;2023-05-15T08:06:40;15.40;;;13.23;;
54641;SDS011;40536;53.194;5.728;2023-05-15T08:09:06;16.58;;;13.65;;
54641;SDS011;40536;53.194;5.728;2023-05-15T08:11:33;15.43;;;14.05;;
54641;SDS011;40536;53.194;5.728;2023-05-15T08:13:59;15.30;;;13.70;;
54641;SDS011;40536;53.194;5.728;2023-05-15T08:16:25;16.25;;;14.70;;
54641;SDS011;40536;53.194;5.728;2023-05-15T08:18:50;15.27;;;13.70;;
54641;SDS011;40536;53.194;5.728;2023-05-15T08:21:17;14.32;;;12.90;;
54641;SDS011;40536;53.194;5.728;2023-05-15T08:23:43;16.90;;;14.65;;
54641;SDS011;40536;53.194;5.728;2023-05-15T08:26:08;17.00;;;15.40;;
54641;SDS011;40536;53.194;5.728;2023-05-15T08:28:34;15.23;;;13.10;;
54641;SDS011;40536;53.194;5.728;2023-05-15T08:31:00;15.05;;;13.45;;
54641;SDS011;40536;53.194;5.728;2023-05-15T08:33:25;18.40;;;14.70;;
54641;SDS011;40536;53.194;5.728;2023-05-15T08:35:51;17.65;;;16.08;;
54641;SDS011;40536;53.194;5.728;2023-05-15T08:38:17;19.05;;;16.90;;
54641;SDS011;40536;53.194;5.728;2023-05-15T08:40:45;18.75;;;16.83;;
54641;SDS011;40536;53.194;5.728;2023-05-15T08:43:12;19.08;;;17.23;;
54641;SDS011;40536;53.194;5.728;2023-05-15T08:45:41;18.95;;;17.13;;
54641;SDS011;40536;53.194;5.728;2023-05-15T08:48:09;19.55;;;17.52;;
54641;SDS011;40536;53.194;5.728;2023-05-15T08:50:37;19.55;;;17.73;;
54641;SDS011;40536;53.194;5.728;2023-05-15T08:53:04;20.45;;;18.45;;
54641;SDS011;40536;53.194;5.728;2023-05-15T08:55:30;20.27;;;18.17;;
54641;SDS011;40536;53.194;5.728;2023-05-15T08:57:56;25.13;;;22.77;;
54641;SDS011;40536;53.194;5.728;2023-05-15T09:00:23;22.08;;;19.75;;
54641;SDS011;40536;53.194;5.728;2023-05-15T09:02:52;22.45;;;20.35;;
54641;SDS011;40536;53.194;5.728;2023-05-15T09:05:18;24.13;;;21.85;;
54641;SDS011;40536;53.194;5.728;2023-05-15T09:07:43;22.85;;;20.88;;
54641;SDS011;40536;53.194;5.728;2023-05-15T09:10:12;23.63;;;21.42;;
54641;SDS011;40536;53.194;5.728;2023-05-15T09:12:42;23.42;;;21.25;;
54641;SDS011;40536;53.194;5.728;2023-05-15T09:15:12;19.63;;;17.90;;
54641;SDS011;40536;53.194;5.728;2023-05-15T09:17:41;21.48;;;19.65;;
54641;SDS011;40536;53.194;5.728;2023-05-15T09:20:23;16.80;;;15.15;;
54641;SDS011;40536;53.194;5.728;2023-05-15T09:22:56;17.65;;;15.90;;
54641;SDS011;40536;53.194;5.728;2023-05-15T09:28:04;19.42;;;16.23;;
54641;SDS011;40536;53.194;5.728;2023-05-15T09:30:30;21.38;;;19.23;;
54641;SDS011;40536;53.194;5.728;2023-05-15T09:32:59;17.42;;;15.65;;
54641;SDS011;40536;53.194;5.728;2023-05-15T09:35:34;18.08;;;16.38;;
54641;SDS011;40536;53.194;5.728;2023-05-15T09:38:08;20.88;;;17.75;;
54641;SDS011;40536;53.194;5.728;2023-05-15T09:40:35;18.85;;;17.15;;
54641;SDS011;40536;53.194;5.728;2023-05-15T09:43:02;17.13;;;15.45;;
54641;SDS011;40536;53.194;5.728;2023-05-15T09:45:28;16.25;;;14.38;;
54641;SDS011;40536;53.194;5.728;2023-05-15T09:47:55;16.15;;;14.18;;
54641;SDS011;40536;53.194;5.728;2023-05-15T09:50:31;21.80;;;20.00;;
54641;SDS011;40536;53.194;5.728;2023-05-15T09:52:59;24.67;;;22.73;;
54641;SDS011;40536;53.194;5.728;2023-05-15T09:55:25;24.00;;;21.98;;
54641;SDS011;40536;53.194;5.728;2023-05-15T09:58:08;20.40;;;18.58;;
54641;SDS011;40536;53.194;5.728;2023-05-15T10:00:35;22.45;;;20.55;;
54641;SDS011;40536;53.194;5.728;2023-05-15T10:03:03;22.67;;;20.48;;
54641;SDS011;40536;53.194;5.728;2023-05-15T10:05:30;23.73;;;21.63;;
54641;SDS011;40536;53.194;5.728;2023-05-15T10:07:56;26.80;;;24.60;;
54641;SDS011;40536;53.194;5.728;2023-05-15T10:10:23;19.55;;;17.92;;
54641;SDS011;40536;53.194;5.728;2023-05-15T10:12:50;19.88;;;18.08;;
54641;SDS011;40536;53.194;5.728;2023-05-15T10:15:18;17.55;;;15.85;;
54641;SDS011;40536;53.194;5.728;2023-05-15T10:17:48;19.65;;;17.85;;
54641;SDS011;40536;53.194;5.728;2023-05-15T10:20:15;20.10;;;18.33;;
54641;SDS011;40536;53.194;5.728;2023-05-15T10:22:44;19.92;;;17.40;;
54641;SDS011;40536;53.194;5.728;2023-05-15T10:25:15;18.50;;;16.75;;
54641;SDS011;40536;53.194;5.728;2023-05-15T10:27:43;23.05;;;20.95;;
54641;SDS011;40536;53.194;5.728;2023-05-15T10:30:11;19.10;;;17.30;;
54641;SDS011;40536;53.194;5.728;2023-05-15T10:32:38;29.63;;;27.35;;
54641;SDS011;40536;53.194;5.728;2023-05-15T10:35:06;18.60;;;17.10;;
54641;SDS011;40536;53.194;5.728;2023-05-15T10:37:34;17.55;;;15.95;;
54641;SDS011;40536;53.194;5.728;2023-05-15T10:40:00;17.42;;;15.63;;
54641;SDS011;40536;53.194;5.728;2023-05-15T10:42:27;17.95;;;16.15;;
54641;SDS011;40536;53.194;5.728;2023-05-15T10:44:54;17.83;;;16.23;;
54641;SDS011;40536;53.194;5.728;2023-05-15T10:47:24;16.13;;;14.70;;
54641;SDS011;40536;53.194;5.728;2023-05-15T10:49:51;14.75;;;13.43;;
54641;SDS011;40536;53.194;5.728;2023-05-15T10:52:17;21.00;;;19.30;;
54641;SDS011;40536;53.194;5.728;2023-05-15T10:54:43;18.05;;;16.52;;
54641;SDS011;40536;53.194;5.728;2023-05-15T10:57:09;18.70;;;16.92;;
54641;SDS011;40536;53.194;5.728;2023-05-15T10:59:35;20.65;;;18.85;;
54641;SDS011;40536;53.194;5.728;2023-05-15T11:02:20;19.23;;;17.73;;
54641;SDS011;40536;53.194;5.728;2023-05-15T11:04:47;19.73;;;18.13;;
54641;SDS011;40536;53.194;5.728;2023-05-15T11:07:26;18.55;;;17.10;;
54641;SDS011;40536;53.194;5.728;2023-05-15T11:09:52;19.58;;;18.05;;
54641;SDS011;40536;53.194;5.728;2023-05-15T11:12:19;19.40;;;17.92;;
54641;SDS011;40536;53.194;5.728;2023-05-15T11:17:21;22.48;;;20.40;;
54641;SDS011;40536;53.194;5.728;2023-05-15T11:27:22;20.65;;;18.95;;
54641;SDS011;40536;53.194;5.728;2023-05-15T11:30:01;20.60;;;18.95;;
54641;SDS011;40536;53.194;5.728;2023-05-15T11:32:54;17.15;;;15.77;;
54641;SDS011;40536;53.194;5.728;2023-05-15T11:35:30;18.05;;;16.58;;
54641;SDS011;40536;53.194;5.728;2023-05-15T11:38:02;16.98;;;15.40;;
54641;SDS011;40536;53.194;5.728;2023-05-15T11:40:35;20.38;;;18.67;;
54641;SDS011;40536;53.194;5.728;2023-05-15T11:43:26;17.95;;;16.27;;
54641;SDS011;40536;53.194;5.728;2023-05-15T11:46:10;17.58;;;15.98;;
54641;SDS011;40536;53.194;5.728;2023-05-15T11:48:41;18.75;;;17.15;;
54641;SDS011;40536;53.194;5.728;2023-05-15T11:51:18;18.88;;;17.27;;
54641;SDS011;40536;53.194;5.728;2023-05-15T11:53:47;20.00;;;18.30;;
54641;SDS011;40536;53.194;5.728;2023-05-15T11:56:21;23.20;;;21.13;;
54641;SDS011;40536;53.194;5.728;2023-05-15T11:58:56;23.23;;;21.02;;
54641;SDS011;40536;53.194;5.728;2023-05-15T12:01:22;24.35;;;22.05;;
54641;SDS011;40536;53.194;5.728;2023-05-15T12:03:48;30.80;;;28.52;;
54641;SDS011;40536;53.194;5.728;2023-05-15T12:06:15;30.60;;;28.40;;
54641;SDS011;40536;53.194;5.728;2023-05-15T12:08:42;29.27;;;27.25;;
54641;SDS011;40536;53.194;5.728;2023-05-15T12:11:09;32.25;;;30.02;;
54641;SDS011;40536;53.194;5.728;2023-05-15T12:13:36;33.95;;;31.73;;
54641;SDS011;40536;53.194;5.728;2023-05-15T12:16:02;27.10;;;25.08;;
54641;SDS011;40536;53.194;5.728;2023-05-15T12:18:29;25.83;;;23.90;;
54641;SDS011;40536;53.194;5.728;2023-05-15T12:20:56;28.30;;;26.20;;
54641;SDS011;40536;53.194;5.728;2023-05-15T12:23:24;25.85;;;23.83;;
54641;SDS011;40536;53.194;5.728;2023-05-15T12:25:55;22.52;;;20.73;;
54641;SDS011;40536;53.194;5.728;2023-05-15T12:28:24;22.95;;;20.77;;
54641;SDS011;40536;53.194;5.728;2023-05-15T12:30:50;24.67;;;22.58;;
54641;SDS011;40536;53.194;5.728;2023-05-15T12:33:17;21.85;;;19.98;;
54641;SDS011;40536;53.194;5.728;2023-05-15T12:35:46;24.60;;;22.55;;
54641;SDS011;40536;53.194;5.728;2023-05-15T12:40:42;28.00;;;25.60;;
54641;SDS011;40536;53.194;5.728;2023-05-15T12:43:09;25.45;;;23.30;;
54641;SDS011;40536;53.194;5.728;2023-05-15T12:45:36;22.80;;;20.70;;
54641;SDS011;40536;53.194;5.728;2023-05-15T12:48:03;21.13;;;19.33;;
54641;SDS011;40536;53.194;5.728;2023-05-15T12:50:33;20.80;;;19.02;;
54641;SDS011;40536;53.194;5.728;2023-05-15T12:53:01;19.85;;;18.15;;
54641;SDS011;40536;53.194;5.728;2023-05-15T12:55:28;19.33;;;17.73;;
54641;SDS011;40536;53.194;5.728;2023-05-15T12:57:59;21.63;;;19.83;;
54641;SDS011;40536;53.194;5.728;2023-05-15T13:00:33;22.80;;;20.80;;
54641;SDS011;40536;53.194;5.728;2023-05-15T13:03:00;26.80;;;24.60;;
54641;SDS011;40536;53.194;5.728;2023-05-15T13:05:27;19.05;;;17.25;;
54641;SDS011;40536;53.194;5.728;2023-05-15T13:07:57;23.10;;;21.17;;
54641;SDS011;40536;53.194;5.728;2023-05-15T13:10:24;20.17;;;18.38;;
54641;SDS011;40536;53.194;5.728;2023-05-15T13:12:50;18.63;;;16.92;;
54641;SDS011;40536;53.194;5.728;2023-05-15T13:15:32;22.02;;;20.05;;
54641;SDS011;40536;53.194;5.728;2023-05-15T13:18:01;17.10;;;15.30;;
54641;SDS011;40536;53.194;5.728;2023-05-15T13:20:48;16.73;;;15.07;;
54641;SDS011;40536;53.194;5.728;2023-05-15T13:23:18;17.77;;;15.93;;
54641;SDS011;40536;53.194;5.728;2023-05-15T13:25:45;18.33;;;16.52;;
54641;SDS011;40536;53.194;5.728;2023-05-15T13:28:11;15.82;;;13.45;;
54641;SDS011;40536;53.194;5.728;2023-05-15T13:30:44;17.30;;;15.57;;
54641;SDS011;40536;53.194;5.728;2023-05-15T13:33:10;16.52;;;14.82;;
54641;SDS011;40536;53.194;5.728;2023-05-15T13:35:36;17.85;;;16.02;;
54641;SDS011;40536;53.194;5.728;2023-05-15T13:38:03;18.80;;;17.00;;
54641;SDS011;40536;53.194;5.728;2023-05-15T13:40:29;19.88;;;17.88;;
54641;SDS011;40536;53.194;5.728;2023-05-15T13:42:57;23.13;;;21.10;;
54641;SDS011;40536;53.194;5.728;2023-05-15T13:45:23;19.60;;;17.17;;
54641;SDS011;40536;53.194;5.728;2023-05-15T13:47:49;19.85;;;17.85;;
54641;SDS011;40536;53.194;5.728;2023-05-15T13:50:14;18.20;;;16.35;;
54641;SDS011;40536;53.194;5.728;2023-05-15T13:52:41;18.55;;;16.45;;
54641;SDS011;40536;53.194;5.728;2023-05-15T13:55:08;20.60;;;18.40;;
54641;SDS011;40536;53.194;5.728;2023-05-15T13:57:37;23.90;;;21.55;;
54641;SDS011;40536;53.194;5.728;2023-05-15T14:00:07;21.08;;;18.88;;
54641;SDS011;40536;53.194;5.728;2023-05-15T14:02:37;20.88;;;18.67;;
54641;SDS011;40536;53.194;5.728;2023-05-15T14:05:03;28.42;;;26.02;;
54641;SDS011;40536;53.194;5.728;2023-05-15T14:07:29;23.50;;;21.30;;
54641;SDS011;40536;53.194;5.728;2023-05-15T14:09:56;25.48;;;23.27;;
54641;SDS011;40536;53.194;5.728;2023-05-15T14:12:22;22.35;;;20.38;;
54641;SDS011;40536;53.194;5.728;2023-05-15T14:14:47;32.22;;;29.83;;
54641;SDS011;40536;53.194;5.728;2023-05-15T14:17:14;30.75;;;28.25;;
54641;SDS011;40536;53.194;5.728;2023-05-15T14:19:40;34.20;;;31.52;;
54641;SDS011;40536;53.194;5.728;2023-05-15T14:22:05;22.00;;;19.92;;
54641;SDS011;40536;53.194;5.728;2023-05-15T14:24:31;21.95;;;19.85;;
54641;SDS011;40536;53.194;5.728;2023-05-15T14:26:57;19.33;;;17.30;;
54641;SDS011;40536;53.194;5.728;2023-05-15T14:29:23;18.55;;;16.73;;
54641;SDS011;40536;53.194;5.728;2023-05-15T14:31:51;20.67;;;18.75;;
54641;SDS011;40536;53.194;5.728;2023-05-15T14:34:17;20.40;;;18.48;;
54641;SDS011;40536;53.194;5.728;2023-05-15T14:36:46;18.60;;;16.73;;
54641;SDS011;40536;53.194;5.728;2023-05-15T14:39:15;16.63;;;14.95;;
54641;SDS011;40536;53.194;5.728;2023-05-15T14:41:42;18.38;;;16.08;;
54641;SDS011;40536;53.194;5.728;2023-05-15T14:44:08;19.00;;;17.13;;
54641;SDS011;40536;53.194;5.728;2023-05-15T14:46:34;17.60;;;15.90;;
54641;SDS011;40536;53.194;5.728;2023-05-15T14:49:03;20.23;;;18.23;;
54641;SDS011;40536;53.194;5.728;2023-05-15T14:51:29;19.73;;;17.88;;